Decoded Metar for KBIS (BISMARCK in ND, USA) (IATA:BIS) | Meteo·Mobile Aviation Weather
aviador You're here:

KBIS Decoded Metar

BISMARCK in ND, USA
Report Time2018-09-24 06:52:00
UTC Time2018-09-24 07:13:15
Flight Rules ifr IFR
Wind300° at 06 kt
W.Decomp.*RWY 31: 5.7 kt HW 1.8 kt LCW
RWY 21: 0.7 kt HW 6.0 kt RCW
W.Rank300° ranks 4
Current wind is below 300° avg. (9.8)
Visibility9999 m
Phenomena:N/A
Clouds:Overcast 006 Hf
Expected CloudBase > 400 ft AGL from Temp-Dew spread
Ceiling600 ft
Temp08°C (ISA -4)
Dew Point07°C (93% RH)
AAT5.1°C
QNH1012 hPa
Density Alt1,391 ft
Elevation1,657 ft
Report Wrong Elevation
Raw Report
KBIS 240652Z AUTO 30006KT 10SM OVC006 08/07 A2989 RMK AO2 SLP130
T00780067=

Extra information for KBIS:More info

Metar Taf Metar & Taf Last 4 Metars F.Rules Stats Wind Profile Meteogram Temp Stats Airport Information Weather charts Add Link Nearby VenuesMetar ALERT Operation Metar Decoded Social comments

AIRNAV info for KBIS